sensor_id;sensor_type;location;lat;lon;timestamp;temperature;humidity
18868;DHT22;9563;49.240;9.088;2023-07-31T04:00:26;16.20;99.90
18868;DHT22;9563;49.240;9.088;2023-07-31T04:02:52;16.20;99.90
18868;DHT22;9563;49.240;9.088;2023-07-31T04:05:19;16.20;99.90
18868;DHT22;9563;49.240;9.088;2023-07-31T04:07:46;16.20;99.90
18868;DHT22;9563;49.240;9.088;2023-07-31T04:10:13;16.20;99.90
18868;DHT22;9563;49.240;9.088;2023-07-31T04:12:40;16.20;99.90
18868;DHT22;9563;49.240;9.088;2023-07-31T04:15:07;16.10;99.90
18868;DHT22;9563;49.240;9.088;2023-07-31T04:17:35;16.10;99.90
18868;DHT22;9563;49.240;9.088;2023-07-31T04:20:03;16.10;99.90
18868;DHT22;9563;49.240;9.088;2023-07-31T04:22:30;16.10;99.90
18868;DHT22;9563;49.240;9.088;2023-07-31T04:24:56;16.20;99.90
18868;DHT22;9563;49.240;9.088;2023-07-31T04:27:23;16.10;99.90
18868;DHT22;9563;49.240;9.088;2023-07-31T04:29:50;16.20;99.90
18868;DHT22;9563;49.240;9.088;2023-07-31T04:32:17;16.30;99.90
18868;DHT22;9563;49.240;9.088;2023-07-31T04:34:46;16.30;99.90
18868;DHT22;9563;49.240;9.088;2023-07-31T04:37:13;16.30;99.90
18868;DHT22;9563;49.240;9.088;2023-07-31T04:39:39;16.30;99.90
18868;DHT22;9563;49.240;9.088;2023-07-31T04:42:06;16.30;99.90
18868;DHT22;9563;49.240;9.088;2023-07-31T04:44:33;16.40;99.90
18868;DHT22;9563;49.240;9.088;2023-07-31T04:47:00;16.40;99.90
18868;DHT22;9563;49.240;9.088;2023-07-31T04:49:27;16.40;99.90
18868;DHT22;9563;49.240;9.088;2023-07-31T04:51:55;16.40;99.90
18868;DHT22;9563;49.240;9.088;2023-07-31T04:54:22;16.40;99.90
18868;DHT22;9563;49.240;9.088;2023-07-31T04:56:49;16.40;99.90
18868;DHT22;9563;49.240;9.088;2023-07-31T04:59:16;16.40;99.90
18868;DHT22;9563;49.240;9.088;2023-07-31T05:01:43;16.30;99.90
18868;DHT22;9563;49.240;9.088;2023-07-31T05:04:12;16.30;99.90
18868;DHT22;9563;49.240;9.088;2023-07-31T05:06:39;16.30;99.90
18868;DHT22;9563;49.240;9.088;2023-07-31T05:09:07;16.30;99.90
18868;DHT22;9563;49.240;9.088;2023-07-31T05:11:34;16.30;99.90
18868;DHT22;9563;49.240;9.088;2023-07-31T05:14:01;16.30;99.90
18868;DHT22;9563;49.240;9.088;2023-07-31T05:16:28;16.30;99.90
18868;DHT22;9563;49.240;9.088;2023-07-31T05:18:55;16.30;99.90
18868;DHT22;9563;49.240;9.088;2023-07-31T05:21:22;16.30;99.90
18868;DHT22;9563;49.240;9.088;2023-07-31T05:23:51;16.30;99.90
18868;DHT22;9563;49.240;9.088;2023-07-31T05:26:19;16.30;99.90
18868;DHT22;9563;49.240;9.088;2023-07-31T05:28:46;16.30;99.90
18868;DHT22;9563;49.240;9.088;2023-07-31T05:31:13;16.40;99.90
18868;DHT22;9563;49.240;9.088;2023-07-31T05:33:39;16.40;99.90
18868;DHT22;9563;49.240;9.088;2023-07-31T05:36:06;16.50;99.90
18868;DHT22;9563;49.240;9.088;2023-07-31T05:38:33;16.40;99.90
18868;DHT22;9563;49.240;9.088;2023-07-31T05:41:00;16.50;99.90
18868;DHT22;9563;49.240;9.088;2023-07-31T05:43:28;16.50;99.90
18868;DHT22;9563;49.240;9.088;2023-07-31T05:45:55;16.60;99.90
18868;DHT22;9563;49.240;9.088;2023-07-31T05:48:22;16.60;99.90
18868;DHT22;9563;49.240;9.088;2023-07-31T05:50:49;16.70;99.90
18868;DHT22;9563;49.240;9.088;2023-07-31T05:53:16;16.70;99.90
18868;DHT22;9563;49.240;9.088;2023-07-31T05:55:42;16.80;99.90
18868;DHT22;9563;49.240;9.088;2023-07-31T05:58:09;16.90;99.90
18868;DHT22;9563;49.240;9.088;2023-07-31T06:00:38;17.00;99.90
18868;DHT22;9563;49.240;9.088;2023-07-31T06:03:04;17.00;99.90
18868;DHT22;9563;49.240;9.088;2023-07-31T06:05:31;17.00;99.90
18868;DHT22;9563;49.240;9.088;2023-07-31T06:07:58;17.00;99.90
18868;DHT22;9563;49.240;9.088;2023-07-31T06:10:25;17.10;99.90
18868;DHT22;9563;49.240;9.088;2023-07-31T06:12:52;17.20;99.90
18868;DHT22;9563;49.240;9.088;2023-07-31T06:15:19;17.20;99.90
18868;DHT22;9563;49.240;9.088;2023-07-31T06:17:48;17.30;99.90
18868;DHT22;9563;49.240;9.088;2023-07-31T06:20:15;17.50;99.90
18868;DHT22;9563;49.240;9.088;2023-07-31T06:22:42;17.50;99.90
18868;DHT22;9563;49.240;9.088;2023-07-31T06:25:08;17.70;99.90
18868;DHT22;9563;49.240;9.088;2023-07-31T06:27:36;17.90;99.90
18868;DHT22;9563;49.240;9.088;2023-07-31T06:30:03;18.00;99.90
18868;DHT22;9563;49.240;9.088;2023-07-31T06:32:30;18.10;99.90
18868;DHT22;9563;49.240;9.088;2023-07-31T06:34:58;18.20;99.90
18868;DHT22;9563;49.240;9.088;2023-07-31T06:37:25;18.30;99.90
18868;DHT22;9563;49.240;9.088;2023-07-31T06:39:52;18.30;99.90
18868;DHT22;9563;49.240;9.088;2023-07-31T06:42:19;18.30;99.90
18868;DHT22;9563;49.240;9.088;2023-07-31T06:44:46;18.40;99.90
18868;DHT22;9563;49.240;9.088;2023-07-31T06:47:13;18.40;99.90
18868;DHT22;9563;49.240;9.088;2023-07-31T06:49:40;18.40;99.90
18868;DHT22;9563;49.240;9.088;2023-07-31T06:52:08;18.40;99.90
18868;DHT22;9563;49.240;9.088;2023-07-31T06:54:36;18.50;99.90
18868;DHT22;9563;49.240;9.088;2023-07-31T06:57:04;18.50;99.90
18868;DHT22;9563;49.240;9.088;2023-07-31T06:59:33;18.50;99.90
18868;DHT22;9563;49.240;9.088;2023-07-31T07:02:00;18.50;99.90
18868;DHT22;9563;49.240;9.088;2023-07-31T07:04:27;18.50;99.90
18868;DHT22;9563;49.240;9.088;2023-07-31T07:06:54;18.40;99.90
18868;DHT22;9563;49.240;9.088;2023-07-31T07:09:22;18.40;99.90
18868;DHT22;9563;49.240;9.088;2023-07-31T07:11:49;18.40;99.90
18868;DHT22;9563;49.240;9.088;2023-07-31T07:14:15;18.40;99.90
18868;DHT22;9563;49.240;9.088;2023-07-31T07:16:42;18.40;99.90
18868;DHT22;9563;49.240;9.088;2023-07-31T07:19:09;18.40;99.90
18868;DHT22;9563;49.240;9.088;2023-07-31T07:21:36;18.40;99.90
18868;DHT22;9563;49.240;9.088;2023-07-31T07:24:03;18.40;99.90
18868;DHT22;9563;49.240;9.088;2023-07-31T07:26:31;18.50;99.90
18868;DHT22;9563;49.240;9.088;2023-07-31T07:28:58;18.50;99.90
18868;DHT22;9563;49.240;9.088;2023-07-31T07:31:27;18.40;99.90
18868;DHT22;9563;49.240;9.088;2023-07-31T07:33:54;18.40;99.90
18868;DHT22;9563;49.240;9.088;2023-07-31T07:36:21;18.60;99.90
18868;DHT22;9563;49.240;9.088;2023-07-31T07:38:48;18.70;99.90
18868;DHT22;9563;49.240;9.088;2023-07-31T07:41:15;18.80;99.90
18868;DHT22;9563;49.240;9.088;2023-07-31T07:43:43;19.00;99.90
18868;DHT22;9563;49.240;9.088;2023-07-31T07:46:10;19.10;99.90
18868;DHT22;9563;49.240;9.088;2023-07-31T07:48:37;19.20;99.90
18868;DHT22;9563;49.240;9.088;2023-07-31T07:51:04;19.30;99.90
18868;DHT22;9563;49.240;9.088;2023-07-31T07:53:30;19.30;99.90
18868;DHT22;9563;49.240;9.088;2023-07-31T07:55:57;19.40;99.90
18868;DHT22;9563;49.240;9.088;2023-07-31T07:58:24;19.60;99.90
18868;DHT22;9563;49.240;9.088;2023-07-31T08:00:53;19.70;99.90
18868;DHT22;9563;49.240;9.088;2023-07-31T08:03:19;19.90;99.90
18868;DHT22;9563;49.240;9.088;2023-07-31T08:05:46;20.10;99.90
18868;DHT22;9563;49.240;9.088;2023-07-31T08:08:15;20.50;99.90
18868;DHT22;9563;49.240;9.088;2023-07-31T08:10:42;20.90;99.90
18868;DHT22;9563;49.240;9.088;2023-07-31T08:13:10;21.00;99.90
18868;DHT22;9563;49.240;9.088;2023-07-31T08:15:37;20.90;99.90
18868;DHT22;9563;49.240;9.088;2023-07-31T08:18:05;20.80;99.90
18868;DHT22;9563;49.240;9.088;2023-07-31T08:20:32;20.90;99.90
18868;DHT22;9563;49.240;9.088;2023-07-31T08:22:59;21.00;99.90
18868;DHT22;9563;49.240;9.088;2023-07-31T08:25:27;21.10;99.90
18868;DHT22;9563;49.240;9.088;2023-07-31T08:27:53;20.90;99.90
18868;DHT22;9563;49.240;9.088;2023-07-31T08:30:21;20.80;99.90
18868;DHT22;9563;49.240;9.088;2023-07-31T08:32:48;20.80;99.90
18868;DHT22;9563;49.240;9.088;2023-07-31T08:35:17;21.00;99.90
18868;DHT22;9563;49.240;9.088;2023-07-31T08:37:44;21.10;99.90
18868;DHT22;9563;49.240;9.088;2023-07-31T08:40:11;21.00;99.90
18868;DHT22;9563;49.240;9.088;2023-07-31T08:42:43;20.80;99.90
18868;DHT22;9563;49.240;9.088;2023-07-31T08:45:13;20.60;99.90
18868;DHT22;9563;49.240;9.088;2023-07-31T08:47:42;20.60;99.90
18868;DHT22;9563;49.240;9.088;2023-07-31T08:50:10;20.80;99.90
18868;DHT22;9563;49.240;9.088;2023-07-31T08:52:38;20.90;99.90
18868;DHT22;9563;49.240;9.088;2023-07-31T08:55:07;21.00;99.90
18868;DHT22;9563;49.240;9.088;2023-07-31T08:57:35;20.90;99.90
18868;DHT22;9563;49.240;9.088;2023-07-31T09:00:04;21.00;99.90
18868;DHT22;9563;49.240;9.088;2023-07-31T09:02:45;20.90;99.90
18868;DHT22;9563;49.240;9.088;2023-07-31T09:05:13;20.90;99.90
18868;DHT22;9563;49.240;9.088;2023-07-31T09:07:42;20.80;99.90
18868;DHT22;9563;49.240;9.088;2023-07-31T09:10:12;20.70;99.90
18868;DHT22;9563;49.240;9.088;2023-07-31T09:12:39;20.90;99.90
18868;DHT22;9563;49.240;9.088;2023-07-31T09:15:07;21.10;99.90
18868;DHT22;9563;49.240;9.088;2023-07-31T09:17:34;21.00;99.90
18868;DHT22;9563;49.240;9.088;2023-07-31T09:20:13;21.10;99.90
18868;DHT22;9563;49.240;9.088;2023-07-31T09:22:42;21.20;99.90
18868;DHT22;9563;49.240;9.088;2023-07-31T09:25:16;21.40;99.90
18868;DHT22;9563;49.240;9.088;2023-07-31T09:27:48;21.60;99.90
18868;DHT22;9563;49.240;9.088;2023-07-31T09:30:16;21.70;99.90
18868;DHT22;9563;49.240;9.088;2023-07-31T09:32:43;21.90;99.90
18868;DHT22;9563;49.240;9.088;2023-07-31T09:35:18;21.90;99.90
18868;DHT22;9563;49.240;9.088;2023-07-31T09:37:50;21.80;99.90
18868;DHT22;9563;49.240;9.088;2023-07-31T09:40:27;21.50;99.90
18868;DHT22;9563;49.240;9.088;2023-07-31T09:42:56;21.50;99.90
18868;DHT22;9563;49.240;9.088;2023-07-31T09:45:24;21.60;99.90
18868;DHT22;9563;49.240;9.088;2023-07-31T09:47:51;21.70;99.90
18868;DHT22;9563;49.240;9.088;2023-07-31T09:50:20;22.00;99.90
18868;DHT22;9563;49.240;9.088;2023-07-31T09:52:49;22.00;99.90
18868;DHT22;9563;49.240;9.088;2023-07-31T09:55:16;22.10;99.90
18868;DHT22;9563;49.240;9.088;2023-07-31T09:57:45;22.40;99.90
18868;DHT22;9563;49.240;9.088;2023-07-31T10:00:13;22.60;99.90
18868;DHT22;9563;49.240;9.088;2023-07-31T10:02:41;22.80;99.90
18868;DHT22;9563;49.240;9.088;2023-07-31T10:05:08;22.60;99.90
18868;DHT22;9563;49.240;9.088;2023-07-31T10:07:37;22.50;99.90
18868;DHT22;9563;49.240;9.088;2023-07-31T10:10:08;22.60;99.90
18868;DHT22;9563;49.240;9.088;2023-07-31T10:12:36;22.60;99.90
18868;DHT22;9563;49.240;9.088;2023-07-31T10:15:03;22.60;99.90
18868;DHT22;9563;49.240;9.088;2023-07-31T10:17:32;22.70;99.90
18868;DHT22;9563;49.240;9.088;2023-07-31T10:20:02;22.80;99.90
18868;DHT22;9563;49.240;9.088;2023-07-31T10:22:30;22.80;99.90
18868;DHT22;9563;49.240;9.088;2023-07-31T10:24:58;22.70;99.90
18868;DHT22;9563;49.240;9.088;2023-07-31T10:27:27;22.90;99.90
18868;DHT22;9563;49.240;9.088;2023-07-31T10:29:55;23.10;99.90
18868;DHT22;9563;49.240;9.088;2023-07-31T10:32:23;23.10;99.90
18868;DHT22;9563;49.240;9.088;2023-07-31T10:34:51;23.50;99.90
18868;DHT22;9563;49.240;9.088;2023-07-31T10:37:27;23.70;99.90
18868;DHT22;9563;49.240;9.088;2023-07-31T10:39:58;23.40;99.90
18868;DHT22;9563;49.240;9.088;2023-07-31T10:42:30;23.30;99.90
18868;DHT22;9563;49.240;9.088;2023-07-31T10:44:58;23.20;99.90
18868;DHT22;9563;49.240;9.088;2023-07-31T10:47:26;23.20;99.90
18868;DHT22;9563;49.240;9.088;2023-07-31T10:49:55;23.00;99.90
18868;DHT22;9563;49.240;9.088;2023-07-31T10:52:37;22.70;99.90
18868;DHT22;9563;49.240;9.088;2023-07-31T10:55:15;22.50;99.90
18868;DHT22;9563;49.240;9.088;2023-07-31T10:57:47;22.40;99.90
18868;DHT22;9563;49.240;9.088;2023-07-31T11:00:24;22.20;99.90
18868;DHT22;9563;49.240;9.088;2023-07-31T11:03:02;22.20;99.90
18868;DHT22;9563;49.240;9.088;2023-07-31T11:05:43;22.00;99.90
18868;DHT22;9563;49.240;9.088;2023-07-31T11:08:12;21.80;99.90
18868;DHT22;9563;49.240;9.088;2023-07-31T11:10:39;21.90;99.90
18868;DHT22;9563;49.240;9.088;2023-07-31T11:13:07;22.00;99.90
18868;DHT22;9563;49.240;9.088;2023-07-31T11:15:34;22.10;99.90
18868;DHT22;9563;49.240;9.088;2023-07-31T11:18:01;22.00;99.90
18868;DHT22;9563;49.240;9.088;2023-07-31T11:20:31;21.90;99.90
18868;DHT22;9563;49.240;9.088;2023-07-31T11:23:00;22.00;99.90
18868;DHT22;9563;49.240;9.088;2023-07-31T11:25:29;22.20;99.90
18868;DHT22;9563;49.240;9.088;2023-07-31T11:27:57;22.20;99.90
18868;DHT22;9563;49.240;9.088;2023-07-31T11:30:25;22.10;99.90
18868;DHT22;9563;49.240;9.088;2023-07-31T11:32:52;21.90;99.90
18868;DHT22;9563;49.240;9.088;2023-07-31T11:35:19;21.70;99.90
18868;DHT22;9563;49.240;9.088;2023-07-31T11:37:46;21.70;99.90
18868;DHT22;9563;49.240;9.088;2023-07-31T11:40:12;21.60;99.90
18868;DHT22;9563;49.240;9.088;2023-07-31T11:42:39;21.60;99.90
18868;DHT22;9563;49.240;9.088;2023-07-31T11:45:08;21.70;99.90
18868;DHT22;9563;49.240;9.088;2023-07-31T11:47:37;21.80;99.90
18868;DHT22;9563;49.240;9.088;2023-07-31T11:50:06;21.90;99.90
18868;DHT22;9563;49.240;9.088;2023-07-31T11:52:37;22.10;99.90
18868;DHT22;9563;49.240;9.088;2023-07-31T11:55:07;22.20;99.90
18868;DHT22;9563;49.240;9.088;2023-07-31T11:57:37;22.50;99.90
18868;DHT22;9563;49.240;9.088;2023-07-31T12:00:05;22.60;99.90
18868;DHT22;9563;49.240;9.088;2023-07-31T12:02:33;22.80;99.90
18868;DHT22;9563;49.240;9.088;2023-07-31T12:05:02;23.00;99.90
18868;DHT22;9563;49.240;9.088;2023-07-31T12:07:43;22.80;99.90
18868;DHT22;9563;49.240;9.088;2023-07-31T12:10:10;22.70;99.90
18868;DHT22;9563;49.240;9.088;2023-07-31T12:12:37;22.40;99.90
18868;DHT22;9563;49.240;9.088;2023-07-31T12:15:14;22.10;99.90
18868;DHT22;9563;49.240;9.088;2023-07-31T12:17:41;22.00;99.90
18868;DHT22;9563;49.240;9.088;2023-07-31T12:20:11;21.80;99.90
18868;DHT22;9563;49.240;9.088;2023-07-31T12:22:38;21.80;99.90
18868;DHT22;9563;49.240;9.088;2023-07-31T12:25:05;21.80;99.90
18868;DHT22;9563;49.240;9.088;2023-07-31T12:27:33;21.70;99.90
18868;DHT22;9563;49.240;9.088;2023-07-31T12:30:00;21.70;99.90
18868;DHT22;9563;49.240;9.088;2023-07-31T12:32:30;21.70;99.90
18868;DHT22;9563;49.240;9.088;2023-07-31T12:34:59;21.70;99.90
18868;DHT22;9563;49.240;9.088;2023-07-31T12:37:30;21.70;99.90
18868;DHT22;9563;49.240;9.088;2023-07-31T12:39:57;21.90;99.90
18868;DHT22;9563;49.240;9.088;2023-07-31T12:42:30;21.90;99.90
18868;DHT22;9563;49.240;9.088;2023-07-31T12:44:57;21.90;99.90
18868;DHT22;9563;49.240;9.088;2023-07-31T12:47:24;22.00;99.90
18868;DHT22;9563;49.240;9.088;2023-07-31T12:49:51;22.10;99.90
18868;DHT22;9563;49.240;9.088;2023-07-31T12:52:18;22.20;99.90
18868;DHT22;9563;49.240;9.088;2023-07-31T12:54:46;22.00;99.90
18868;DHT22;9563;49.240;9.088;2023-07-31T12:57:13;21.90;99.90
18868;DHT22;9563;49.240;9.088;2023-07-31T12:59:40;22.00;99.90
18868;DHT22;9563;49.240;9.088;2023-07-31T13:02:07;22.10;99.90
18868;DHT22;9563;49.240;9.088;2023-07-31T13:04:34;22.20;99.90
18868;DHT22;9563;49.240;9.088;2023-07-31T13:07:00;22.20;99.90
18868;DHT22;9563;49.240;9.088;2023-07-31T13:09:27;22.10;99.90
18868;DHT22;9563;49.240;9.088;2023-07-31T13:11:56;22.10;99.90
18868;DHT22;9563;49.240;9.088;2023-07-31T13:14:23;22.10;99.90
18868;DHT22;9563;49.240;9.088;2023-07-31T13:16:49;22.10;99.90
18868;DHT22;9563;49.240;9.088;2023-07-31T13:19:16;22.00;99.90
18868;DHT22;9563;49.240;9.088;2023-07-31T13:21:43;22.10;99.90
18868;DHT22;9563;49.240;9.088;2023-07-31T13:24:10;22.30;99.90
18868;DHT22;9563;49.240;9.088;2023-07-31T13:26:37;22.60;99.90
18868;DHT22;9563;49.240;9.088;2023-07-31T13:29:05;22.70;99.90
18868;DHT22;9563;49.240;9.088;2023-07-31T13:31:32;22.70;99.90
18868;DHT22;9563;49.240;9.088;2023-07-31T13:33:59;22.70;99.90
18868;DHT22;9563;49.240;9.088;2023-07-31T13:36:26;22.60;99.90
18868;DHT22;9563;49.240;9.088;2023-07-31T13:38:52;22.50;99.90
18868;DHT22;9563;49.240;9.088;2023-07-31T13:41:19;22.50;99.90
18868;DHT22;9563;49.240;9.088;2023-07-31T13:43:46;22.50;99.90
18868;DHT22;9563;49.240;9.088;2023-07-31T13:46:14;22.50;99.90
18868;DHT22;9563;49.240;9.088;2023-07-31T13:48:41;22.50;99.90
18868;DHT22;9563;49.240;9.088;2023-07-31T13:51:08;22.50;99.90
18868;DHT22;9563;49.240;9.088;2023-07-31T13:53:35;22.40;99.90
18868;DHT22;9563;49.240;9.088;2023-07-31T13:56:02;22.30;99.90
18868;DHT22;9563;49.240;9.088;2023-07-31T13:58:29;22.20;99.90
18868;DHT22;9563;49.240;9.088;2023-07-31T14:00:55;22.30;99.90
18868;DHT22;9563;49.240;9.088;2023-07-31T14:03:25;22.40;99.90
18868;DHT22;9563;49.240;9.088;2023-07-31T14:05:52;22.40;99.90
18868;DHT22;9563;49.240;9.088;2023-07-31T14:08:19;22.40;99.90
18868;DHT22;9563;49.240;9.088;2023-07-31T14:10:46;22.50;99.90
18868;DHT22;9563;49.240;9.088;2023-07-31T14:13:13;22.70;99.90
18868;DHT22;9563;49.240;9.088;2023-07-31T14:15:42;22.80;99.90
18868;DHT22;9563;49.240;9.088;2023-07-31T14:18:09;22.80;99.90
18868;DHT22;9563;49.240;9.088;2023-07-31T14:20:37;22.80;99.90
18868;DHT22;9563;49.240;9.088;2023-07-31T14:23:04;23.00;99.90
18868;DHT22;9563;49.240;9.088;2023-07-31T14:25:31;22.80;99.90
18868;DHT22;9563;49.240;9.088;2023-07-31T14:27:58;22.80;99.90
18868;DHT22;9563;49.240;9.088;2023-07-31T14:30:25;22.80;99.90
18868;DHT22;9563;49.240;9.088;2023-07-31T14:32:52;22.80;99.90
18868;DHT22;9563;49.240;9.088;2023-07-31T14:35:19;22.60;99.90
18868;DHT22;9563;49.240;9.088;2023-07-31T14:37:47;22.40;99.90
18868;DHT22;9563;49.240;9.088;2023-07-31T14:40:15;22.30;99.90
18868;DHT22;9563;49.240;9.088;2023-07-31T14:42:41;22.20;99.90
18868;DHT22;9563;49.240;9.088;2023-07-31T14:45:09;22.10;99.90
18868;DHT22;9563;49.240;9.088;2023-07-31T14:47:36;22.10;99.90
18868;DHT22;9563;49.240;9.088;2023-07-31T14:50:04;22.10;99.90
18868;DHT22;9563;49.240;9.088;2023-07-31T14:52:31;22.20;99.90
18868;DHT22;9563;49.240;9.088;2023-07-31T14:54:59;22.40;99.90
18868;DHT22;9563;49.240;9.088;2023-07-31T14:57:26;22.40;99.90
18868;DHT22;9563;49.240;9.088;2023-07-31T14:59:53;22.40;99.90
18868;DHT22;9563;49.240;9.088;2023-07-31T15:02:20;22.40;99.90
18868;DHT22;9563;49.240;9.088;2023-07-31T15:04:47;22.40;99.90
18868;DHT22;9563;49.240;9.088;2023-07-31T15:07:13;22.40;99.90
18868;DHT22;9563;49.240;9.088;2023-07-31T15:09:40;22.20;99.90
18868;DHT22;9563;49.240;9.088;2023-07-31T15:12:09;22.20;99.90
18868;DHT22;9563;49.240;9.088;2023-07-31T15:14:36;22.20;99.90
18868;DHT22;9563;49.240;9.088;2023-07-31T15:17:03;22.20;99.90
18868;DHT22;9563;49.240;9.088;2023-07-31T15:19:30;22.30;99.90
18868;DHT22;9563;49.240;9.088;2023-07-31T15:22:00;22.40;99.90
18868;DHT22;9563;49.240;9.088;2023-07-31T15:24:27;22.40;99.90
18868;DHT22;9563;49.240;9.088;2023-07-31T15:26:54;22.40;99.90
18868;DHT22;9563;49.240;9.088;2023-07-31T15:29:23;22.40;99.90
18868;DHT22;9563;49.240;9.088;2023-07-31T15:31:49;22.40;99.90
18868;DHT22;9563;49.240;9.088;2023-07-31T15:34:16;22.50;99.90
18868;DHT22;9563;49.240;9.088;2023-07-31T15:36:44;22.70;99.90
18868;DHT22;9563;49.240;9.088;2023-07-31T15:39:11;22.70;99.90
18868;DHT22;9563;49.240;9.088;2023-07-31T15:41:38;22.60;99.90
18868;DHT22;9563;49.240;9.088;2023-07-31T15:44:05;22.70;99.90
18868;DHT22;9563;49.240;9.088;2023-07-31T15:46:33;22.80;99.90
18868;DHT22;9563;49.240;9.088;2023-07-31T15:49:00;22.80;99.90
18868;DHT22;9563;49.240;9.088;2023-07-31T15:51:27;22.80;99.90
18868;DHT22;9563;49.240;9.088;2023-07-31T15:53:55;22.80;99.90
18868;DHT22;9563;49.240;9.088;2023-07-31T15:56:21;22.70;99.90
18868;DHT22;9563;49.240;9.088;2023-07-31T15:58:48;22.80;99.90
18868;DHT22;9563;49.240;9.088;2023-07-31T16:01:16;22.80;99.90
18868;DHT22;9563;49.240;9.088;2023-07-31T16:03:44;22.70;99.90
18868;DHT22;9563;49.240;9.088;2023-07-31T16:06:11;22.70;99.90
18868;DHT22;9563;49.240;9.088;2023-07-31T16:08:38;22.50;99.90
18868;DHT22;9563;49.240;9.088;2023-07-31T16:11:07;22.30;99.90
18868;DHT22;9563;49.240;9.088;2023-07-31T16:13:34;22.10;99.90
18868;DHT22;9563;49.240;9.088;2023-07-31T16:16:01;22.00;99.90
18868;DHT22;9563;49.240;9.088;2023-07-31T16:18:29;21.90;99.90
18868;DHT22;9563;49.240;9.088;2023-07-31T16:20:57;21.90;99.90
18868;DHT22;9563;49.240;9.088;2023-07-31T16:23:24;21.80;99.90
18868;DHT22;9563;49.240;9.088;2023-07-31T16:25:51;21.80;99.90
18868;DHT22;9563;49.240;9.088;2023-07-31T16:28:18;21.70;99.90
18868;DHT22;9563;49.240;9.088;2023-07-31T16:30:46;21.80;99.90
18868;DHT22;9563;49.240;9.088;2023-07-31T16:33:13;21.90;99.90
18868;DHT22;9563;49.240;9.088;2023-07-31T16:35:40;21.90;99.90
18868;DHT22;9563;49.240;9.088;2023-07-31T16:38:09;21.90;99.90
18868;DHT22;9563;49.240;9.088;2023-07-31T16:40:35;21.90;99.90
18868;DHT22;9563;49.240;9.088;2023-07-31T16:43:02;21.90;99.90
18868;DHT22;9563;49.240;9.088;2023-07-31T16:45:29;21.90;99.90
18868;DHT22;9563;49.240;9.088;2023-07-31T16:47:56;21.90;99.90
18868;DHT22;9563;49.240;9.088;2023-07-31T16:50:23;21.80;99.90
18868;DHT22;9563;49.240;9.088;2023-07-31T16:52:50;21.70;99.90
18868;DHT22;9563;49.240;9.088;2023-07-31T16:55:18;21.70;99.90
18868;DHT22;9563;49.240;9.088;2023-07-31T16:57:45;21.70;99.90
18868;DHT22;9563;49.240;9.088;2023-07-31T17:00:12;21.60;99.90
18868;DHT22;9563;49.240;9.088;2023-07-31T17:02:39;21.60;99.90
18868;DHT22;9563;49.240;9.088;2023-07-31T17:05:07;21.60;99.90
18868;DHT22;9563;49.240;9.088;2023-07-31T17:07:34;21.60;99.90
18868;DHT22;9563;49.240;9.088;2023-07-31T17:10:01;21.60;99.90
18868;DHT22;9563;49.240;9.088;2023-07-31T17:12:29;21.60;99.90
18868;DHT22;9563;49.240;9.088;2023-07-31T17:14:56;21.60;99.90
18868;DHT22;9563;49.240;9.088;2023-07-31T17:17:23;21.50;99.90
18868;DHT22;9563;49.240;9.088;2023-07-31T17:19:51;21.40;99.90
18868;DHT22;9563;49.240;9.088;2023-07-31T17:22:18;21.40;99.90
18868;DHT22;9563;49.240;9.088;2023-07-31T17:24:44;21.30;99.90
18868;DHT22;9563;49.240;9.088;2023-07-31T17:27:11;21.20;99.90
18868;DHT22;9563;49.240;9.088;2023-07-31T17:29:40;21.20;99.90
18868;DHT22;9563;49.240;9.088;2023-07-31T17:32:07;21.10;99.90
18868;DHT22;9563;49.240;9.088;2023-07-31T17:34:34;21.10;99.90
18868;DHT22;9563;49.240;9.088;2023-07-31T17:37:01;21.00;99.90
18868;DHT22;9563;49.240;9.088;2023-07-31T17:39:27;20.70;99.90
18868;DHT22;9563;49.240;9.088;2023-07-31T17:41:54;20.50;99.90
18868;DHT22;9563;49.240;9.088;2023-07-31T17:44:21;20.40;99.90
18868;DHT22;9563;49.240;9.088;2023-07-31T17:46:49;20.10;99.90
18868;DHT22;9563;49.240;9.088;2023-07-31T17:49:17;20.00;99.90
18868;DHT22;9563;49.240;9.088;2023-07-31T17:51:44;19.80;99.90
18868;DHT22;9563;49.240;9.088;2023-07-31T17:54:10;19.70;99.90
18868;DHT22;9563;49.240;9.088;2023-07-31T17:56:38;19.60;99.90
18868;DHT22;9563;49.240;9.088;2023-07-31T17:59:05;19.40;99.90
18868;DHT22;9563;49.240;9.088;2023-07-31T18:01:32;19.40;99.90
18868;DHT22;9563;49.240;9.088;2023-07-31T18:04:00;19.30;99.90
18868;DHT22;9563;49.240;9.088;2023-07-31T18:06:29;19.20;99.90
18868;DHT22;9563;49.240;9.088;2023-07-31T18:08:59;19.10;99.90
18868;DHT22;9563;49.240;9.088;2023-07-31T18:11:26;19.10;99.90
18868;DHT22;9563;49.240;9.088;2023-07-31T18:13:55;19.00;99.90
18868;DHT22;9563;49.240;9.088;2023-07-31T18:16:22;18.90;99.90
18868;DHT22;9563;49.240;9.088;2023-07-31T18:18:49;18.90;99.90
18868;DHT22;9563;49.240;9.088;2023-07-31T18:21:18;18.90;99.90
18868;DHT22;9563;49.240;9.088;2023-07-31T18:23:44;18.90;99.90
18868;DHT22;9563;49.240;9.088;2023-07-31T18:26:11;18.90;99.90
18868;DHT22;9563;49.240;9.088;2023-07-31T18:28:38;18.90;99.90
18868;DHT22;9563;49.240;9.088;2023-07-31T18:31:05;18.90;99.90
18868;DHT22;9563;49.240;9.088;2023-07-31T18:33:32;18.90;99.90
18868;DHT22;9563;49.240;9.088;2023-07-31T18:36:01;18.90;99.90
18868;DHT22;9563;49.240;9.088;2023-07-31T18:38:30;18.90;99.90
18868;DHT22;9563;49.240;9.088;2023-07-31T18:40:58;19.00;99.90
18868;DHT22;9563;49.240;9.088;2023-07-31T18:43:25;18.90;99.90
18868;DHT22;9563;49.240;9.088;2023-07-31T18:45:51;18.90;99.90
18868;DHT22;9563;49.240;9.088;2023-07-31T18:48:18;18.90;99.90
18868;DHT22;9563;49.240;9.088;2023-07-31T18:50:45;18.90;99.90
18868;DHT22;9563;49.240;9.088;2023-07-31T18:53:12;18.90;99.90
18868;DHT22;9563;49.240;9.088;2023-07-31T18:55:43;18.80;99.90
18868;DHT22;9563;49.240;9.088;2023-07-31T18:58:10;18.80;99.90
18868;DHT22;9563;49.240;9.088;2023-07-31T19:00:37;18.70;99.90
18868;DHT22;9563;49.240;9.088;2023-07-31T19:03:04;18.60;99.90
18868;DHT22;9563;49.240;9.088;2023-07-31T19:05:31;18.60;99.90
18868;DHT22;9563;49.240;9.088;2023-07-31T19:07:58;18.60;99.90
18868;DHT22;9563;49.240;9.088;2023-07-31T19:10:30;18.60;99.90
18868;DHT22;9563;49.240;9.088;2023-07-31T19:12:58;18.60;99.90
18868;DHT22;9563;49.240;9.088;2023-07-31T19:15:25;18.60;99.90
18868;DHT22;9563;49.240;9.088;2023-07-31T19:17:52;18.50;99.90
18868;DHT22;9563;49.240;9.088;2023-07-31T19:20:19;18.40;99.90
18868;DHT22;9563;49.240;9.088;2023-07-31T19:22:46;18.30;99.90
18868;DHT22;9563;49.240;9.088;2023-07-31T19:25:13;18.20;99.90
18868;DHT22;9563;49.240;9.088;2023-07-31T19:27:40;18.20;99.90
18868;DHT22;9563;49.240;9.088;2023-07-31T19:30:10;18.20;99.90
18868;DHT22;9563;49.240;9.088;2023-07-31T19:32:37;18.20;99.90
18868;DHT22;9563;49.240;9.088;2023-07-31T19:35:05;18.30;99.90
18868;DHT22;9563;49.240;9.088;2023-07-31T19:37:32;18.30;99.90
18868;DHT22;9563;49.240;9.088;2023-07-31T19:39:59;18.30;99.90
18868;DHT22;9563;49.240;9.088;2023-07-31T19:42:26;18.30;99.90
18868;DHT22;9563;49.240;9.088;2023-07-31T19:44:53;18.30;99.90
18868;DHT22;9563;49.240;9.088;2023-07-31T19:47:21;18.30;99.90